sensor_id;sensor_type;location;lat;lon;timestamp;P1;durP1;ratioP1;P2;durP2;ratioP2
43327;SDS011;28923;45.412;10.852;2022-12-20T00:00:13;8.95;;;7.53;;
43327;SDS011;28923;45.412;10.852;2022-12-20T00:02:38;8.40;;;7.38;;
43327;SDS011;28923;45.412;10.852;2022-12-20T00:05:04;9.75;;;7.75;;
43327;SDS011;28923;45.412;10.852;2022-12-20T00:07:29;9.32;;;7.50;;
43327;SDS011;28923;45.412;10.852;2022-12-20T00:09:55;8.90;;;7.53;;
43327;SDS011;28923;45.412;10.852;2022-12-20T00:12:20;8.90;;;7.32;;
43327;SDS011;28923;45.412;10.852;2022-12-20T00:14:45;9.10;;;8.02;;
43327;SDS011;28923;45.412;10.852;2022-12-20T00:17:11;8.52;;;7.40;;
43327;SDS011;28923;45.412;10.852;2022-12-20T00:19:36;10.02;;;7.63;;
43327;SDS011;28923;45.412;10.852;2022-12-20T00:22:02;9.23;;;7.55;;
43327;SDS011;28923;45.412;10.852;2022-12-20T00:24:27;9.55;;;7.07;;
43327;SDS011;28923;45.412;10.852;2022-12-20T00:26:52;8.48;;;7.18;;
43327;SDS011;28923;45.412;10.852;2022-12-20T00:29:18;8.90;;;7.80;;
43327;SDS011;28923;45.412;10.852;2022-12-20T00:31:43;9.50;;;7.20;;
43327;SDS011;28923;45.412;10.852;2022-12-20T00:34:09;9.32;;;7.55;;
43327;SDS011;28923;45.412;10.852;2022-12-20T00:36:35;9.00;;;6.82;;
43327;SDS011;28923;45.412;10.852;2022-12-20T00:39:03;8.35;;;7.05;;
43327;SDS011;28923;45.412;10.852;2022-12-20T00:41:30;9.95;;;7.60;;
43327;SDS011;28923;45.412;10.852;2022-12-20T00:43:55;8.88;;;7.40;;
43327;SDS011;28923;45.412;10.852;2022-12-20T00:46:21;9.70;;;7.53;;
43327;SDS011;28923;45.412;10.852;2022-12-20T00:48:47;9.80;;;7.90;;
43327;SDS011;28923;45.412;10.852;2022-12-20T00:51:14;8.43;;;7.10;;
43327;SDS011;28923;45.412;10.852;2022-12-20T00:53:40;9.20;;;7.07;;
43327;SDS011;28923;45.412;10.852;2022-12-20T00:56:06;10.68;;;7.45;;
43327;SDS011;28923;45.412;10.852;2022-12-20T00:58:32;8.43;;;6.97;;
43327;SDS011;28923;45.412;10.852;2022-12-20T01:00:58;8.88;;;7.55;;
43327;SDS011;28923;45.412;10.852;2022-12-20T01:03:24;9.27;;;7.22;;
43327;SDS011;28923;45.412;10.852;2022-12-20T01:05:50;9.00;;;7.53;;
43327;SDS011;28923;45.412;10.852;2022-12-20T01:08:17;8.93;;;7.13;;
43327;SDS011;28923;45.412;10.852;2022-12-20T01:10:43;8.70;;;6.90;;
43327;SDS011;28923;45.412;10.852;2022-12-20T01:13:08;8.77;;;7.28;;
43327;SDS011;28923;45.412;10.852;2022-12-20T01:15:34;8.57;;;6.72;;
43327;SDS011;28923;45.412;10.852;2022-12-20T01:18:00;8.57;;;6.97;;
43327;SDS011;28923;45.412;10.852;2022-12-20T01:20:25;8.45;;;6.85;;
43327;SDS011;28923;45.412;10.852;2022-12-20T01:22:51;9.25;;;6.60;;
43327;SDS011;28923;45.412;10.852;2022-12-20T01:25:16;8.73;;;7.25;;
43327;SDS011;28923;45.412;10.852;2022-12-20T01:27:41;7.57;;;6.55;;
43327;SDS011;28923;45.412;10.852;2022-12-20T01:30:07;8.27;;;6.32;;
43327;SDS011;28923;45.412;10.852;2022-12-20T01:32:33;8.73;;;6.85;;
43327;SDS011;28923;45.412;10.852;2022-12-20T01:34:58;8.75;;;7.00;;
43327;SDS011;28923;45.412;10.852;2022-12-20T01:37:23;8.32;;;6.78;;
43327;SDS011;28923;45.412;10.852;2022-12-20T01:39:49;7.38;;;6.38;;
43327;SDS011;28923;45.412;10.852;2022-12-20T01:42:14;9.57;;;7.22;;
43327;SDS011;28923;45.412;10.852;2022-12-20T01:47:05;9.57;;;6.97;;
43327;SDS011;28923;45.412;10.852;2022-12-20T01:49:32;8.50;;;6.72;;
43327;SDS011;28923;45.412;10.852;2022-12-20T01:54:32;7.72;;;6.55;;
43327;SDS011;28923;45.412;10.852;2022-12-20T01:56:59;8.10;;;5.97;;
43327;SDS011;28923;45.412;10.852;2022-12-20T01:59:26;7.47;;;6.30;;
43327;SDS011;28923;45.412;10.852;2022-12-20T02:01:52;9.00;;;6.75;;
43327;SDS011;28923;45.412;10.852;2022-12-20T02:04:18;7.50;;;5.93;;
43327;SDS011;28923;45.412;10.852;2022-12-20T02:06:44;7.40;;;6.03;;
43327;SDS011;28923;45.412;10.852;2022-12-20T02:09:09;9.25;;;6.50;;
43327;SDS011;28923;45.412;10.852;2022-12-20T02:16:39;7.50;;;6.22;;
43327;SDS011;28923;45.412;10.852;2022-12-20T02:19:20;7.55;;;5.28;;
43327;SDS011;28923;45.412;10.852;2022-12-20T02:21:52;6.53;;;5.53;;
43327;SDS011;28923;45.412;10.852;2022-12-20T02:33:11;8.45;;;5.80;;
43327;SDS011;28923;45.412;10.852;2022-12-20T02:35:12;6.40;;;5.43;;
43327;SDS011;28923;45.412;10.852;2022-12-20T02:37:46;6.45;;;5.53;;
43327;SDS011;28923;45.412;10.852;2022-12-20T02:40:12;6.63;;;5.60;;
43327;SDS011;28923;45.412;10.852;2022-12-20T02:42:39;6.20;;;5.43;;
43327;SDS011;28923;45.412;10.852;2022-12-20T02:45:05;5.20;;;4.70;;
43327;SDS011;28923;45.412;10.852;2022-12-20T02:47:45;5.63;;;5.03;;
43327;SDS011;28923;45.412;10.852;2022-12-20T02:50:11;6.22;;;5.35;;
43327;SDS011;28923;45.412;10.852;2022-12-20T02:52:37;7.70;;;5.30;;
43327;SDS011;28923;45.412;10.852;2022-12-20T02:55:03;5.32;;;4.80;;
43327;SDS011;28923;45.412;10.852;2022-12-20T02:58:05;5.72;;;4.93;;
43327;SDS011;28923;45.412;10.852;2022-12-20T03:00:23;6.35;;;4.93;;
43327;SDS011;28923;45.412;10.852;2022-12-20T03:02:49;5.63;;;4.30;;
43327;SDS011;28923;45.412;10.852;2022-12-20T03:05:35;5.65;;;4.63;;
43327;SDS011;28923;45.412;10.852;2022-12-20T03:08:02;5.82;;;4.45;;
43327;SDS011;28923;45.412;10.852;2022-12-20T03:10:28;4.57;;;4.18;;
43327;SDS011;28923;45.412;10.852;2022-12-20T03:12:54;6.15;;;4.78;;
43327;SDS011;28923;45.412;10.852;2022-12-20T03:15:19;4.90;;;4.40;;
43327;SDS011;28923;45.412;10.852;2022-12-20T03:17:47;5.13;;;4.35;;
43327;SDS011;28923;45.412;10.852;2022-12-20T03:20:13;5.78;;;4.57;;
43327;SDS011;28923;45.412;10.852;2022-12-20T03:22:38;4.93;;;4.00;;
43327;SDS011;28923;45.412;10.852;2022-12-20T03:25:04;4.72;;;4.20;;
43327;SDS011;28923;45.412;10.852;2022-12-20T03:27:31;6.30;;;4.93;;
43327;SDS011;28923;45.412;10.852;2022-12-20T03:29:58;5.75;;;4.45;;
43327;SDS011;28923;45.412;10.852;2022-12-20T03:32:23;5.60;;;4.30;;
43327;SDS011;28923;45.412;10.852;2022-12-20T03:34:49;7.03;;;4.35;;
43327;SDS011;28923;45.412;10.852;2022-12-20T03:37:19;4.97;;;4.47;;
43327;SDS011;28923;45.412;10.852;2022-12-20T03:39:45;5.22;;;4.10;;
43327;SDS011;28923;45.412;10.852;2022-12-20T03:42:11;5.25;;;4.53;;
43327;SDS011;28923;45.412;10.852;2022-12-20T03:44:36;4.70;;;4.18;;
43327;SDS011;28923;45.412;10.852;2022-12-20T03:47:02;4.55;;;4.07;;
43327;SDS011;28923;45.412;10.852;2022-12-20T03:49:28;5.82;;;4.07;;
43327;SDS011;28923;45.412;10.852;2022-12-20T03:51:54;5.13;;;4.25;;
43327;SDS011;28923;45.412;10.852;2022-12-20T03:54:20;4.90;;;4.25;;
43327;SDS011;28923;45.412;10.852;2022-12-20T03:57:04;5.30;;;4.20;;
43327;SDS011;28923;45.412;10.852;2022-12-20T03:59:30;4.28;;;3.88;;
43327;SDS011;28923;45.412;10.852;2022-12-20T04:01:56;5.35;;;4.18;;
43327;SDS011;28923;45.412;10.852;2022-12-20T04:04:21;4.50;;;4.05;;
43327;SDS011;28923;45.412;10.852;2022-12-20T04:06:47;4.80;;;4.30;;
43327;SDS011;28923;45.412;10.852;2022-12-20T04:09:13;5.72;;;4.40;;
43327;SDS011;28923;45.412;10.852;2022-12-20T04:11:45;4.45;;;4.05;;
43327;SDS011;28923;45.412;10.852;2022-12-20T04:14:13;4.85;;;4.20;;
43327;SDS011;28923;45.412;10.852;2022-12-20T04:16:38;5.18;;;4.13;;
43327;SDS011;28923;45.412;10.852;2022-12-20T04:19:05;4.57;;;3.90;;
43327;SDS011;28923;45.412;10.852;2022-12-20T04:21:35;5.00;;;4.30;;
43327;SDS011;28923;45.412;10.852;2022-12-20T04:24:03;4.50;;;3.85;;
43327;SDS011;28923;45.412;10.852;2022-12-20T04:26:42;5.78;;;3.97;;
43327;SDS011;28923;45.412;10.852;2022-12-20T04:29:09;5.75;;;4.32;;
43327;SDS011;28923;45.412;10.852;2022-12-20T04:31:34;5.93;;;4.53;;
43327;SDS011;28923;45.412;10.852;2022-12-20T04:34:00;4.90;;;4.15;;
43327;SDS011;28923;45.412;10.852;2022-12-20T04:36:28;5.03;;;4.00;;
43327;SDS011;28923;45.412;10.852;2022-12-20T04:38:55;5.13;;;4.18;;
43327;SDS011;28923;45.412;10.852;2022-12-20T04:41:20;4.88;;;4.10;;
43327;SDS011;28923;45.412;10.852;2022-12-20T04:43:55;4.80;;;4.00;;
43327;SDS011;28923;45.412;10.852;2022-12-20T04:46:24;4.03;;;3.50;;
43327;SDS011;28923;45.412;10.852;2022-12-20T04:48:51;5.43;;;4.57;;
43327;SDS011;28923;45.412;10.852;2022-12-20T04:51:16;5.93;;;3.90;;
43327;SDS011;28923;45.412;10.852;2022-12-20T04:53:42;5.55;;;3.72;;
43327;SDS011;28923;45.412;10.852;2022-12-20T04:56:40;4.82;;;4.10;;
43327;SDS011;28923;45.412;10.852;2022-12-20T04:59:12;4.32;;;3.83;;
43327;SDS011;28923;45.412;10.852;2022-12-20T05:01:40;6.05;;;4.25;;
43327;SDS011;28923;45.412;10.852;2022-12-20T05:04:06;5.28;;;3.70;;
43327;SDS011;28923;45.412;10.852;2022-12-20T05:06:35;4.43;;;3.92;;
43327;SDS011;28923;45.412;10.852;2022-12-20T05:09:00;4.80;;;4.15;;
43327;SDS011;28923;45.412;10.852;2022-12-20T05:11:26;4.60;;;3.92;;
43327;SDS011;28923;45.412;10.852;2022-12-20T05:13:51;4.70;;;4.15;;
43327;SDS011;28923;45.412;10.852;2022-12-20T05:16:19;4.97;;;3.90;;
43327;SDS011;28923;45.412;10.852;2022-12-20T05:18:44;4.70;;;3.72;;
43327;SDS011;28923;45.412;10.852;2022-12-20T05:21:10;7.35;;;3.97;;
43327;SDS011;28923;45.412;10.852;2022-12-20T05:23:54;4.38;;;3.60;;
43327;SDS011;28923;45.412;10.852;2022-12-20T05:26:51;4.75;;;3.60;;
43327;SDS011;28923;45.412;10.852;2022-12-20T05:29:18;4.95;;;3.70;;
43327;SDS011;28923;45.412;10.852;2022-12-20T05:31:44;5.20;;;3.83;;
43327;SDS011;28923;45.412;10.852;2022-12-20T05:34:10;4.35;;;3.45;;
43327;SDS011;28923;45.412;10.852;2022-12-20T05:36:37;4.00;;;3.50;;
43327;SDS011;28923;45.412;10.852;2022-12-20T05:39:04;4.30;;;3.50;;
43327;SDS011;28923;45.412;10.852;2022-12-20T05:41:32;5.82;;;4.00;;
43327;SDS011;28923;45.412;10.852;2022-12-20T05:43:59;4.18;;;3.78;;
43327;SDS011;28923;45.412;10.852;2022-12-20T05:46:25;4.25;;;3.65;;
43327;SDS011;28923;45.412;10.852;2022-12-20T05:48:59;3.85;;;3.22;;
43327;SDS011;28923;45.412;10.852;2022-12-20T05:51:24;3.95;;;3.45;;
43327;SDS011;28923;45.412;10.852;2022-12-20T05:53:56;4.22;;;3.53;;
43327;SDS011;28923;45.412;10.852;2022-12-20T05:56:34;4.95;;;3.38;;
43327;SDS011;28923;45.412;10.852;2022-12-20T05:59:00;6.10;;;3.90;;
43327;SDS011;28923;45.412;10.852;2022-12-20T06:01:25;6.00;;;3.33;;
43327;SDS011;28923;45.412;10.852;2022-12-20T06:03:55;5.38;;;3.60;;
43327;SDS011;28923;45.412;10.852;2022-12-20T06:06:21;8.68;;;3.25;;
43327;SDS011;28923;45.412;10.852;2022-12-20T06:08:47;5.38;;;3.35;;
43327;SDS011;28923;45.412;10.852;2022-12-20T06:11:21;4.72;;;3.42;;
43327;SDS011;28923;45.412;10.852;2022-12-20T06:13:53;7.72;;;3.40;;
43327;SDS011;28923;45.412;10.852;2022-12-20T06:16:19;5.70;;;3.63;;
43327;SDS011;28923;45.412;10.852;2022-12-20T06:18:45;7.28;;;3.85;;
43327;SDS011;28923;45.412;10.852;2022-12-20T06:21:12;4.40;;;3.58;;
43327;SDS011;28923;45.412;10.852;2022-12-20T06:23:37;4.78;;;3.30;;
43327;SDS011;28923;45.412;10.852;2022-12-20T06:26:09;10.15;;;3.50;;
43327;SDS011;28923;45.412;10.852;2022-12-20T06:28:40;6.63;;;3.17;;
43327;SDS011;28923;45.412;10.852;2022-12-20T06:31:08;4.78;;;3.10;;
43327;SDS011;28923;45.412;10.852;2022-12-20T06:33:38;6.15;;;3.28;;
43327;SDS011;28923;45.412;10.852;2022-12-20T06:36:04;5.68;;;3.33;;
43327;SDS011;28923;45.412;10.852;2022-12-20T06:38:30;5.22;;;3.00;;
43327;SDS011;28923;45.412;10.852;2022-12-20T06:40:55;5.47;;;3.30;;
43327;SDS011;28923;45.412;10.852;2022-12-20T06:43:21;7.05;;;3.53;;
43327;SDS011;28923;45.412;10.852;2022-12-20T06:45:46;6.20;;;3.42;;
43327;SDS011;28923;45.412;10.852;2022-12-20T06:48:12;6.07;;;3.00;;
43327;SDS011;28923;45.412;10.852;2022-12-20T06:50:38;6.15;;;3.45;;
43327;SDS011;28923;45.412;10.852;2022-12-20T06:53:04;5.38;;;3.05;;
43327;SDS011;28923;45.412;10.852;2022-12-20T06:55:29;6.03;;;3.42;;
43327;SDS011;28923;45.412;10.852;2022-12-20T06:57:55;7.03;;;3.25;;
43327;SDS011;28923;45.412;10.852;2022-12-20T07:00:21;7.28;;;3.13;;
43327;SDS011;28923;45.412;10.852;2022-12-20T07:02:46;5.20;;;3.20;;
43327;SDS011;28923;45.412;10.852;2022-12-20T07:05:11;10.13;;;3.20;;
43327;SDS011;28923;45.412;10.852;2022-12-20T07:07:37;6.35;;;3.30;;
43327;SDS011;28923;45.412;10.852;2022-12-20T07:10:02;5.55;;;3.38;;
43327;SDS011;28923;45.412;10.852;2022-12-20T07:12:28;8.18;;;3.50;;
43327;SDS011;28923;45.412;10.852;2022-12-20T07:14:53;5.72;;;3.75;;
43327;SDS011;28923;45.412;10.852;2022-12-20T07:17:19;4.95;;;3.22;;
43327;SDS011;28923;45.412;10.852;2022-12-20T07:19:44;4.35;;;3.55;;
43327;SDS011;28923;45.412;10.852;2022-12-20T07:22:10;4.15;;;2.70;;
43327;SDS011;28923;45.412;10.852;2022-12-20T07:24:35;6.20;;;3.60;;
43327;SDS011;28923;45.412;10.852;2022-12-20T07:27:01;4.88;;;3.42;;
43327;SDS011;28923;45.412;10.852;2022-12-20T07:29:26;12.13;;;3.50;;
43327;SDS011;28923;45.412;10.852;2022-12-20T07:31:51;6.18;;;3.33;;
43327;SDS011;28923;45.412;10.852;2022-12-20T07:34:17;5.70;;;3.38;;
43327;SDS011;28923;45.412;10.852;2022-12-20T07:36:43;7.15;;;3.72;;
43327;SDS011;28923;45.412;10.852;2022-12-20T07:39:08;6.95;;;3.55;;
43327;SDS011;28923;45.412;10.852;2022-12-20T07:41:34;5.30;;;3.42;;
43327;SDS011;28923;45.412;10.852;2022-12-20T07:44:01;6.25;;;3.53;;
43327;SDS011;28923;45.412;10.852;2022-12-20T07:46:26;8.52;;;3.70;;
43327;SDS011;28923;45.412;10.852;2022-12-20T07:48:52;6.63;;;3.78;;
43327;SDS011;28923;45.412;10.852;2022-12-20T07:51:18;5.47;;;3.20;;
43327;SDS011;28923;45.412;10.852;2022-12-20T07:53:53;5.15;;;3.25;;
43327;SDS011;28923;45.412;10.852;2022-12-20T07:56:20;5.55;;;3.30;;
43327;SDS011;28923;45.412;10.852;2022-12-20T07:58:46;5.15;;;3.42;;
43327;SDS011;28923;45.412;10.852;2022-12-20T08:01:13;5.65;;;3.70;;
43327;SDS011;28923;45.412;10.852;2022-12-20T08:03:40;6.07;;;3.42;;
43327;SDS011;28923;45.412;10.852;2022-12-20T08:06:07;4.78;;;3.35;;
43327;SDS011;28923;45.412;10.852;2022-12-20T08:08:33;4.75;;;3.70;;
43327;SDS011;28923;45.412;10.852;2022-12-20T08:11:00;5.80;;;3.20;;
43327;SDS011;28923;45.412;10.852;2022-12-20T08:13:26;4.25;;;3.40;;
43327;SDS011;28923;45.412;10.852;2022-12-20T08:15:51;4.63;;;3.45;;
43327;SDS011;28923;45.412;10.852;2022-12-20T08:18:17;4.95;;;3.92;;
43327;SDS011;28923;45.412;10.852;2022-12-20T08:20:42;5.93;;;3.65;;
43327;SDS011;28923;45.412;10.852;2022-12-20T08:23:07;4.72;;;3.47;;
43327;SDS011;28923;45.412;10.852;2022-12-20T08:25:33;4.85;;;3.80;;
43327;SDS011;28923;45.412;10.852;2022-12-20T08:27:58;5.13;;;3.08;;
43327;SDS011;28923;45.412;10.852;2022-12-20T08:30:26;4.18;;;3.72;;
43327;SDS011;28923;45.412;10.852;2022-12-20T08:32:52;4.93;;;3.65;;
43327;SDS011;28923;45.412;10.852;2022-12-20T08:35:17;6.20;;;3.95;;
43327;SDS011;28923;45.412;10.852;2022-12-20T08:37:43;5.18;;;4.10;;
43327;SDS011;28923;45.412;10.852;2022-12-20T08:40:08;6.15;;;3.92;;
43327;SDS011;28923;45.412;10.852;2022-12-20T08:42:34;5.13;;;3.65;;
43327;SDS011;28923;45.412;10.852;2022-12-20T08:44:59;4.68;;;3.42;;
43327;SDS011;28923;45.412;10.852;2022-12-20T08:47:24;6.63;;;4.30;;
43327;SDS011;28923;45.412;10.852;2022-12-20T08:49:50;5.93;;;3.55;;
43327;SDS011;28923;45.412;10.852;2022-12-20T08:52:15;5.20;;;3.45;;
43327;SDS011;28923;45.412;10.852;2022-12-20T08:54:41;4.95;;;3.85;;
43327;SDS011;28923;45.412;10.852;2022-12-20T08:57:06;4.88;;;3.70;;
43327;SDS011;28923;45.412;10.852;2022-12-20T08:59:32;5.82;;;3.97;;
43327;SDS011;28923;45.412;10.852;2022-12-20T09:01:57;4.85;;;3.78;;
43327;SDS011;28923;45.412;10.852;2022-12-20T09:04:23;6.85;;;4.25;;
43327;SDS011;28923;45.412;10.852;2022-12-20T09:06:48;4.20;;;3.72;;
43327;SDS011;28923;45.412;10.852;2022-12-20T09:09:14;5.35;;;4.00;;
43327;SDS011;28923;45.412;10.852;2022-12-20T09:11:40;5.97;;;4.30;;
43327;SDS011;28923;45.412;10.852;2022-12-20T09:14:06;5.70;;;4.28;;
43327;SDS011;28923;45.412;10.852;2022-12-20T09:16:32;6.32;;;4.05;;
43327;SDS011;28923;45.412;10.852;2022-12-20T09:18:58;6.57;;;4.38;;
43327;SDS011;28923;45.412;10.852;2022-12-20T09:21:24;6.97;;;4.45;;
43327;SDS011;28923;45.412;10.852;2022-12-20T09:23:50;7.18;;;4.28;;
43327;SDS011;28923;45.412;10.852;2022-12-20T09:26:16;8.20;;;4.75;;
43327;SDS011;28923;45.412;10.852;2022-12-20T09:28:42;7.32;;;5.05;;
43327;SDS011;28923;45.412;10.852;2022-12-20T09:31:12;6.72;;;4.90;;
43327;SDS011;28923;45.412;10.852;2022-12-20T09:33:38;8.35;;;5.10;;
43327;SDS011;28923;45.412;10.852;2022-12-20T09:36:03;6.28;;;4.63;;
43327;SDS011;28923;45.412;10.852;2022-12-20T09:38:29;8.70;;;5.50;;
43327;SDS011;28923;45.412;10.852;2022-12-20T09:40:59;7.25;;;5.07;;
43327;SDS011;28923;45.412;10.852;2022-12-20T09:43:25;6.15;;;4.88;;
43327;SDS011;28923;45.412;10.852;2022-12-20T09:45:51;10.10;;;5.60;;
43327;SDS011;28923;45.412;10.852;2022-12-20T09:48:19;8.75;;;5.05;;
43327;SDS011;28923;45.412;10.852;2022-12-20T09:55:58;6.53;;;5.00;;
43327;SDS011;28923;45.412;10.852;2022-12-20T10:00:53;8.25;;;5.57;;
43327;SDS011;28923;45.412;10.852;2022-12-20T10:03:20;7.47;;;5.43;;
43327;SDS011;28923;45.412;10.852;2022-12-20T10:08:23;9.37;;;5.73;;
43327;SDS011;28923;45.412;10.852;2022-12-20T10:10:56;9.77;;;5.93;;
43327;SDS011;28923;45.412;10.852;2022-12-20T10:18:33;9.32;;;6.00;;
43327;SDS011;28923;45.412;10.852;2022-12-20T10:24:03;11.00;;;5.82;;
43327;SDS011;28923;45.412;10.852;2022-12-20T10:26:30;10.27;;;6.20;;
43327;SDS011;28923;45.412;10.852;2022-12-20T10:28:56;8.65;;;5.68;;
43327;SDS011;28923;45.412;10.852;2022-12-20T10:31:21;8.38;;;5.80;;
43327;SDS011;28923;45.412;10.852;2022-12-20T10:33:47;11.07;;;6.25;;
43327;SDS011;28923;45.412;10.852;2022-12-20T10:38:44;8.18;;;5.55;;
43327;SDS011;28923;45.412;10.852;2022-12-20T10:41:13;10.00;;;5.80;;
43327;SDS011;28923;45.412;10.852;2022-12-20T10:43:41;8.23;;;5.95;;
43327;SDS011;28923;45.412;10.852;2022-12-20T10:46:07;8.40;;;6.00;;
43327;SDS011;28923;45.412;10.852;2022-12-20T10:48:34;7.32;;;5.55;;
43327;SDS011;28923;45.412;10.852;2022-12-20T10:53:25;9.57;;;5.63;;
43327;SDS011;28923;45.412;10.852;2022-12-20T10:55:53;8.10;;;5.82;;
43327;SDS011;28923;45.412;10.852;2022-12-20T10:58:32;8.32;;;5.85;;
43327;SDS011;28923;45.412;10.852;2022-12-20T11:01:03;16.20;;;5.72;;
43327;SDS011;28923;45.412;10.852;2022-12-20T11:03:29;7.53;;;5.32;;
43327;SDS011;28923;45.412;10.852;2022-12-20T11:05:56;9.75;;;5.70;;
43327;SDS011;28923;45.412;10.852;2022-12-20T11:08:23;9.32;;;5.70;;
43327;SDS011;28923;45.412;10.852;2022-12-20T11:10:49;9.70;;;5.75;;
43327;SDS011;28923;45.412;10.852;2022-12-20T11:13:20;11.30;;;6.95;;
43327;SDS011;28923;45.412;10.852;2022-12-20T11:15:47;8.73;;;5.60;;
43327;SDS011;28923;45.412;10.852;2022-12-20T11:18:26;7.63;;;5.78;;
43327;SDS011;28923;45.412;10.852;2022-12-20T11:26:15;9.57;;;6.05;;
43327;SDS011;28923;45.412;10.852;2022-12-20T11:28:48;12.20;;;5.80;;
43327;SDS011;28923;45.412;10.852;2022-12-20T11:31:19;8.75;;;6.00;;
43327;SDS011;28923;45.412;10.852;2022-12-20T11:33:51;7.40;;;5.35;;
43327;SDS011;28923;45.412;10.852;2022-12-20T11:36:36;10.02;;;6.05;;
43327;SDS011;28923;45.412;10.852;2022-12-20T11:47:42;10.10;;;5.68;;
43327;SDS011;28923;45.412;10.852;2022-12-20T11:49:52;8.82;;;5.80;;
43327;SDS011;28923;45.412;10.852;2022-12-20T11:52:57;10.13;;;6.22;;
43327;SDS011;28923;45.412;10.852;2022-12-20T11:55:35;10.77;;;6.53;;
43327;SDS011;28923;45.412;10.852;2022-12-20T11:58:03;11.80;;;6.47;;
43327;SDS011;28923;45.412;10.852;2022-12-20T12:00:30;11.45;;;7.00;;
43327;SDS011;28923;45.412;10.852;2022-12-20T12:02:58;11.05;;;7.03;;
43327;SDS011;28923;45.412;10.852;2022-12-20T12:05:27;11.13;;;7.00;;
43327;SDS011;28923;45.412;10.852;2022-12-20T12:07:58;12.80;;;7.15;;
43327;SDS011;28923;45.412;10.852;2022-12-20T12:10:26;11.27;;;7.00;;
43327;SDS011;28923;45.412;10.852;2022-12-20T12:12:57;11.10;;;6.90;;
43327;SDS011;28923;45.412;10.852;2022-12-20T12:15:29;12.68;;;7.38;;
43327;SDS011;28923;45.412;10.852;2022-12-20T12:18:03;11.93;;;8.02;;
43327;SDS011;28923;45.412;10.852;2022-12-20T12:25:41;14.38;;;8.50;;
43327;SDS011;28923;45.412;10.852;2022-12-20T12:28:08;13.50;;;7.80;;
43327;SDS011;28923;45.412;10.852;2022-12-20T12:30:36;14.80;;;8.38;;
43327;SDS011;28923;45.412;10.852;2022-12-20T12:33:03;13.75;;;8.57;;
43327;SDS011;28923;45.412;10.852;2022-12-20T12:38:03;13.13;;;8.00;;
43327;SDS011;28923;45.412;10.852;2022-12-20T12:45:51;13.63;;;8.07;;
43327;SDS011;28923;45.412;10.852;2022-12-20T12:51:01;13.02;;;8.05;;
43327;SDS011;28923;45.412;10.852;2022-12-20T12:53:40;14.95;;;8.32;;
43327;SDS011;28923;45.412;10.852;2022-12-20T12:59:38;15.35;;;8.65;;
43327;SDS011;28923;45.412;10.852;2022-12-20T13:06:52;14.77;;;8.32;;
43327;SDS011;28923;45.412;10.852;2022-12-20T13:11:44;15.50;;;8.48;;
43327;SDS011;28923;45.412;10.852;2022-12-20T13:16:38;14.75;;;8.60;;
43327;SDS011;28923;45.412;10.852;2022-12-20T13:19:15;17.63;;;9.05;;
43327;SDS011;28923;45.412;10.852;2022-12-20T13:21:45;15.57;;;9.18;;
43327;SDS011;28923;45.412;10.852;2022-12-20T13:24:34;15.30;;;8.77;;
43327;SDS011;28923;45.412;10.852;2022-12-20T13:27:00;15.43;;;9.18;;
43327;SDS011;28923;45.412;10.852;2022-12-20T13:29:31;14.07;;;9.05;;
43327;SDS011;28923;45.412;10.852;2022-12-20T13:31:57;16.40;;;9.75;;
43327;SDS011;28923;45.412;10.852;2022-12-20T13:34:51;17.95;;;10.07;;
43327;SDS011;28923;45.412;10.852;2022-12-20T13:37:28;15.18;;;9.15;;
43327;SDS011;28923;45.412;10.852;2022-12-20T13:40:16;16.85;;;9.65;;
43327;SDS011;28923;45.412;10.852;2022-12-20T13:42:43;17.05;;;10.07;;
43327;SDS011;28923;45.412;10.852;2022-12-20T13:45:10;17.15;;;10.00;;
43327;SDS011;28923;45.412;10.852;2022-12-20T13:47:38;18.23;;;10.90;;
43327;SDS011;28923;45.412;10.852;2022-12-20T13:52:50;18.10;;;10.43;;
43327;SDS011;28923;45.412;10.852;2022-12-20T13:55:37;16.80;;;10.40;;
43327;SDS011;28923;45.412;10.852;2022-12-20T13:58:03;16.23;;;10.23;;
43327;SDS011;28923;45.412;10.852;2022-12-20T14:00:29;18.55;;;10.55;;
43327;SDS011;28923;45.412;10.852;2022-12-20T14:02:55;16.73;;;10.93;;
43327;SDS011;28923;45.412;10.852;2022-12-20T14:07:58;16.52;;;10.75;;
43327;SDS011;28923;45.412;10.852;2022-12-20T14:10:24;15.80;;;10.43;;
43327;SDS011;28923;45.412;10.852;2022-12-20T14:12:50;16.17;;;10.40;;
43327;SDS011;28923;45.412;10.852;2022-12-20T14:15:20;17.83;;;10.63;;
43327;SDS011;28923;45.412;10.852;2022-12-20T14:17:46;16.17;;;10.55;;
43327;SDS011;28923;45.412;10.852;2022-12-20T14:25:11;17.10;;;10.40;;
43327;SDS011;28923;45.412;10.852;2022-12-20T14:27:40;15.82;;;10.82;;
43327;SDS011;28923;45.412;10.852;2022-12-20T14:30:05;15.40;;;10.32;;
43327;SDS011;28923;45.412;10.852;2022-12-20T14:32:31;15.50;;;10.68;;
43327;SDS011;28923;45.412;10.852;2022-12-20T14:34:56;15.07;;;10.20;;
43327;SDS011;28923;45.412;10.852;2022-12-20T14:37:32;15.77;;;10.35;;
43327;SDS011;28923;45.412;10.852;2022-12-20T14:42:34;17.20;;;10.75;;
43327;SDS011;28923;45.412;10.852;2022-12-20T14:47:34;17.13;;;11.18;;
43327;SDS011;28923;45.412;10.852;2022-12-20T14:50:02;15.63;;;10.70;;
43327;SDS011;28923;45.412;10.852;2022-12-20T14:57:21;16.42;;;11.00;;
43327;SDS011;28923;45.412;10.852;2022-12-20T15:03:16;14.80;;;11.25;;
43327;SDS011;28923;45.412;10.852;2022-12-20T15:11:09;16.08;;;10.80;;
43327;SDS011;28923;45.412;10.852;2022-12-20T15:13:29;15.43;;;11.50;;
43327;SDS011;28923;45.412;10.852;2022-12-20T15:15:56;14.02;;;10.57;;
43327;SDS011;28923;45.412;10.852;2022-12-20T15:18:22;14.32;;;10.75;;
43327;SDS011;28923;45.412;10.852;2022-12-20T15:20:50;14.20;;;10.77;;
43327;SDS011;28923;45.412;10.852;2022-12-20T15:23:20;15.38;;;11.50;;
43327;SDS011;28923;45.412;10.852;2022-12-20T15:25:46;14.75;;;10.82;;
43327;SDS011;28923;45.412;10.852;2022-12-20T15:28:22;14.60;;;10.40;;
43327;SDS011;28923;45.412;10.852;2022-12-20T15:30:48;15.75;;;10.90;;
43327;SDS011;28923;45.412;10.852;2022-12-20T15:33:17;15.93;;;11.75;;
43327;SDS011;28923;45.412;10.852;2022-12-20T15:35:43;16.08;;;12.07;;
43327;SDS011;28923;45.412;10.852;2022-12-20T15:38:16;16.33;;;11.88;;
43327;SDS011;28923;45.412;10.852;2022-12-20T15:40:43;15.90;;;11.45;;
43327;SDS011;28923;45.412;10.852;2022-12-20T15:43:10;17.30;;;12.18;;
43327;SDS011;28923;45.412;10.852;2022-12-20T15:45:36;15.82;;;11.98;;
43327;SDS011;28923;45.412;10.852;2022-12-20T15:48:01;16.42;;;12.50;;
43327;SDS011;28923;45.412;10.852;2022-12-20T15:50:26;15.73;;;11.63;;
43327;SDS011;28923;45.412;10.852;2022-12-20T15:52:52;16.73;;;11.93;;
43327;SDS011;28923;45.412;10.852;2022-12-20T15:55:17;16.80;;;12.23;;
43327;SDS011;28923;45.412;10.852;2022-12-20T15:57:42;16.08;;;11.65;;
43327;SDS011;28923;45.412;10.852;2022-12-20T16:00:08;17.77;;;12.27;;
43327;SDS011;28923;45.412;10.852;2022-12-20T16:02:39;17.85;;;12.68;;
43327;SDS011;28923;45.412;10.852;2022-12-20T16:05:05;17.58;;;12.10;;
43327;SDS011;28923;45.412;10.852;2022-12-20T16:07:30;15.32;;;11.73;;
43327;SDS011;28923;45.412;10.852;2022-12-20T16:09:55;16.88;;;11.90;;
43327;SDS011;28923;45.412;10.852;2022-12-20T16:12:28;16.55;;;12.13;;
43327;SDS011;28923;45.412;10.852;2022-12-20T16:14:54;15.25;;;12.05;;
43327;SDS011;28923;45.412;10.852;2022-12-20T16:17:19;18.60;;;11.90;;
43327;SDS011;28923;45.412;10.852;2022-12-20T16:19:45;16.88;;;12.90;;
43327;SDS011;28923;45.412;10.852;2022-12-20T16:22:14;17.83;;;12.90;;
43327;SDS011;28923;45.412;10.852;2022-12-20T16:24:40;16.90;;;12.90;;